15°C Temp
12°C Dewpoint
% Humidity
Temperature
10 KM/H
6 MPH
5 KTS
100°
Due East

Wind Speed
Clear
Conditions
Pressure 1013.92 (hPa) - 29.94 (in)
Visibility 6.2 (mi) - 10.0 (km)

Current Conditions
LIRQ
Location 35(km)
Metar :LIRQ 242150Z 10005KT CAVOK 15/12 Q1014
Fri 24th May 23:50 pm

Airport
  Metar Aviation API Data Provided by https://www.checkwx.com/ PHP scripts by weather34.com ©2019